Time;durP1;ratioP1;P1;durP2;ratioP2;P2;SDS_P1;SDS_P2;PMS_P1;PMS_P2;Temp;Humidity;BMP_temperature;BMP_pressure;BME280_temperature;BME280_humidity;BME280_pressure;Samples;Min_cycle;Max_cycle;Signal;HPM_P1;HPM_P2
2021/07/27 00:00:48;;;;;;;12.30;8.77;;;24.60;72.10;;;;;;5092628;28;20027;-68
2021/07/27 00:03:14;;;;;;;14.95;8.63;;;24.60;72.20;;;;;;5094948;28;20036;-67
2021/07/27 00:05:40;;;;;;;13.13;8.90;;;24.50;72.20;;;;;;5095616;28;20031;-67
2021/07/27 00:08:07;;;;;;;13.23;9.40;;;24.50;72.30;;;;;;5092970;28;20383;-68
2021/07/27 00:10:35;;;;;;;14.48;9.77;;;24.50;72.40;;;;;;5086445;28;20056;-67
2021/07/27 00:13:02;;;;;;;16.38;10.05;;;24.40;72.50;;;;;;5088878;28;20049;-67
2021/07/27 00:15:28;;;;;;;19.30;10.75;;;24.40;72.60;;;;;;5093761;28;20056;-67
2021/07/27 00:17:54;;;;;;;14.90;9.95;;;24.40;72.70;;;;;;5092384;28;20055;-68
2021/07/27 00:20:20;;;;;;;16.38;11.10;;;24.30;72.80;;;;;;5081700;28;20040;-68
2021/07/27 00:22:46;;;;;;;19.70;11.55;;;24.30;72.90;;;;;;5089431;28;20020;-68
2021/07/27 00:25:16;;;;;;;16.60;10.93;;;24.20;73.00;;;;;;5092995;28;20027;-67
2021/07/27 00:27:44;;;;;;;19.42;11.77;;;24.30;73.10;;;;;;5086843;28;20119;-67
2021/07/27 00:30:11;;;;;;;16.73;11.70;;;24.20;73.20;;;;;;5083354;28;20016;-68
2021/07/27 00:32:39;;;;;;;22.35;11.85;;;24.20;73.20;;;;;;5084971;28;20036;-67
2021/07/27 00:35:05;;;;;;;18.35;12.13;;;24.20;73.30;;;;;;5074767;28;20077;-67
2021/07/27 00:37:33;;;;;;;21.52;12.23;;;24.10;73.30;;;;;;5075311;28;20033;-68
2021/07/27 00:40:00;;;;;;;17.00;11.63;;;24.10;73.30;;;;;;5081112;28;20089;-67
2021/07/27 00:42:26;;;;;;;19.42;12.82;;;24.00;73.20;;;;;;5080964;28;20024;-68
2021/07/27 00:44:52;;;;;;;22.48;13.10;;;24.10;73.30;;;;;;5093001;28;20036;-67
2021/07/27 00:47:18;;;;;;;23.58;14.07;;;24.10;73.20;;;;;;5091933;28;20388;-68
2021/07/27 00:49:44;;;;;;;21.38;12.73;;;24.00;73.30;;;;;;5086004;28;20031;-67
2021/07/27 00:52:10;;;;;;;20.48;13.88;;;24.00;73.20;;;;;;5091194;28;20039;-68
2021/07/27 00:54:37;;;;;;;22.60;14.50;;;23.90;73.10;;;;;;5080622;28;20036;-67
2021/07/27 00:57:03;;;;;;;19.23;12.80;;;23.90;73.30;;;;;;5088724;28;20039;-67
2021/07/27 00:59:29;;;;;;;21.88;14.48;;;23.90;73.20;;;;;;5091443;28;20403;-67
2021/07/27 01:01:55;;;;;;;21.67;13.45;;;23.90;73.10;;;;;;5093745;28;20024;-67
2021/07/27 01:04:21;;;;;;;19.20;11.43;;;23.90;73.10;;;;;;5092109;28;20483;-67
2021/07/27 01:06:47;;;;;;;25.30;15.75;;;23.90;72.90;;;;;;5093082;28;20039;-67
2021/07/27 01:09:13;;;;;;;15.77;9.52;;;23.80;73.10;;;;;;5093452;28;20067;-68
2021/07/27 01:11:43;;;;;;;21.88;14.10;;;23.80;72.60;;;;;;5092611;28;20078;-68
2021/07/27 01:14:09;;;;;;;29.73;15.15;;;23.80;73.00;;;;;;5093551;28;20059;-68
2021/07/27 01:16:36;;;;;;;28.23;17.25;;;23.80;73.20;;;;;;5092481;28;20024;-68
2021/07/27 01:43:43;;;;;;;31.30;18.70;;;23.60;74.20;;;;;;5092313;28;20051;-68
2021/07/27 01:46:10;;;;;;;30.88;18.45;;;23.60;74.50;;;;;;5093096;28;20085;-68
2021/07/27 01:48:37;;;;;;;30.02;18.73;;;23.60;74.50;;;;;;5092184;28;20027;-68
2021/07/27 01:51:05;;;;;;;29.70;18.52;;;23.60;74.60;;;;;;5092653;28;20028;-68
2021/07/27 01:53:36;;;;;;;29.13;18.17;;;23.60;74.90;;;;;;5092606;28;20046;-68
2021/07/27 01:56:02;;;;;;;30.10;19.30;;;23.60;75.00;;;;;;5092145;28;20100;-68
2021/07/27 01:58:27;;;;;;;29.52;18.08;;;23.60;75.10;;;;;;5090107;28;20471;-68
2021/07/27 02:00:53;;;;;;;24.10;14.90;;;23.60;74.70;;;;;;5090643;28;20792;-68
2021/07/27 02:03:23;;;;;;;28.85;18.15;;;23.50;74.50;;;;;;5084016;28;20165;-68
2021/07/27 02:05:49;;;;;;;24.80;15.95;;;23.60;74.80;;;;;;5092393;28;20031;-68
2021/07/27 02:08:15;;;;;;;27.80;17.50;;;23.50;74.30;;;;;;5091745;28;20020;-68
2021/07/27 02:10:44;;;;;;;29.02;16.20;;;23.50;74.60;;;;;;5091975;28;20044;-67
2021/07/27 02:13:14;;;;;;;29.25;17.35;;;23.50;74.70;;;;;;5091315;28;20039;-68
2021/07/27 02:15:41;;;;;;;29.33;16.98;;;23.50;74.80;;;;;;5092162;28;20024;-68
2021/07/27 02:18:07;;;;;;;24.58;15.18;;;23.50;74.60;;;;;;5092133;28;20039;-68
2021/07/27 02:20:33;;;;;;;24.48;16.58;;;23.50;74.50;;;;;;5091792;28;20471;-68
2021/07/27 02:22:59;;;;;;;27.13;16.02;;;23.50;75.10;;;;;;5092335;28;20028;-68
2021/07/27 02:25:24;;;;;;;22.92;15.73;;;23.40;74.20;;;;;;5091751;28;20054;-68
2021/07/27 02:27:50;;;;;;;30.30;16.77;;;23.40;74.30;;;;;;5092336;28;20032;-68
2021/07/27 02:30:16;;;;;;;29.25;15.50;;;23.50;74.60;;;;;;5090268;28;20036;-68
2021/07/27 02:32:45;;;;;;;25.90;15.57;;;23.40;74.50;;;;;;5092042;28;20066;-68
2021/07/27 02:35:11;;;;;;;23.77;14.68;;;23.40;74.30;;;;;;5092149;28;20111;-68
2021/07/27 02:37:37;;;;;;;27.80;15.95;;;23.40;74.40;;;;;;5090701;28;20119;-68
2021/07/27 02:40:06;;;;;;;27.35;15.05;;;23.40;74.40;;;;;;5092281;28;20059;-68
2021/07/27 02:42:32;;;;;;;31.25;16.77;;;23.40;74.50;;;;;;5091374;28;20027;-68
2021/07/27 02:44:58;;;;;;;31.05;17.80;;;23.30;74.60;;;;;;5091432;28;20392;-68
2021/07/27 02:47:24;;;;;;;26.40;15.65;;;23.30;74.80;;;;;;5091097;28;20036;-68
2021/07/27 02:49:51;;;;;;;31.65;17.88;;;23.30;74.60;;;;;;5091673;28;20063;-68
2021/07/27 02:52:17;;;;;;;34.15;17.25;;;23.30;75.00;;;;;;5091835;28;20025;-68
2021/07/27 02:54:43;;;;;;;28.13;16.83;;;23.30;75.00;;;;;;5091416;28;20058;-68
2021/07/27 02:57:09;;;;;;;31.60;16.98;;;23.30;75.20;;;;;;5091122;28;20067;-68
2021/07/27 02:59:35;;;;;;;30.75;16.08;;;23.30;75.50;;;;;;5091763;28;20088;-68
2021/07/27 03:02:01;;;;;;;27.23;16.00;;;23.20;75.10;;;;;;5085625;28;20472;-68
2021/07/27 03:04:26;;;;;;;23.02;12.82;;;23.20;75.00;;;;;;5089800;28;20076;-68
2021/07/27 03:06:52;;;;;;;28.75;16.75;;;23.10;74.70;;;;;;5091888;28;20024;-68
2021/07/27 03:09:25;;;;;;;27.42;16.60;;;23.20;75.00;;;;;;5091344;28;20024;-68
2021/07/27 03:11:51;;;;;;;;;;;23.20;75.20;;;;;;5083347;28;20044;-68
2021/07/27 03:14:17;;;;;;;21.98;12.95;;;23.10;73.90;;;;;;5091419;28;19919;-68
2021/07/27 03:16:43;;;;;;;26.83;11.43;;;23.10;74.40;;;;;;5091438;28;20028;-68
2021/07/27 03:19:08;;;;;;;17.38;9.63;;;23.00;74.60;;;;;;5090615;28;20086;-68
2021/07/27 03:21:37;;;;;;;19.40;8.55;;;23.10;74.60;;;;;;5091144;28;20035;-68
2021/07/27 03:24:03;;;;;;;20.83;11.25;;;23.00;74.50;;;;;;5091758;28;20024;-68
2021/07/27 03:26:28;;;;;;;17.40;9.50;;;23.00;75.20;;;;;;5089393;28;20429;-68
2021/07/27 03:28:54;;;;;;;19.73;7.97;;;23.00;75.30;;;;;;5091430;28;20081;-68
2021/07/27 03:31:21;;;;;;;16.88;8.80;;;23.00;75.00;;;;;;5094917;28;20024;-68
2021/07/27 03:33:47;;;;;;;13.38;8.25;;;23.00;75.20;;;;;;5094590;28;20071;-68
2021/07/27 03:36:13;;;;;;;13.60;7.50;;;22.90;75.30;;;;;;5094936;28;20052;-68
2021/07/27 03:38:39;;;;;;;12.82;8.15;;;22.90;75.50;;;;;;5095545;28;20067;-68
2021/07/27 03:41:07;;;;;;;13.27;7.05;;;22.90;76.00;;;;;;5094839;28;20016;-68
2021/07/27 03:43:33;;;;;;;12.50;6.53;;;22.90;76.00;;;;;;5095181;28;20135;-68
2021/07/27 03:45:59;;;;;;;12.85;7.22;;;22.90;75.80;;;;;;5095246;28;20032;-68
2021/07/27 03:48:25;;;;;;;12.07;7.25;;;22.80;76.00;;;;;;5094209;28;20141;-68
2021/07/27 03:50:51;;;;;;;14.25;6.93;;;22.80;76.00;;;;;;5094728;28;20039;-68
2021/07/27 03:53:17;;;;;;;14.25;8.00;;;22.80;76.20;;;;;;5094106;28;20040;-68
2021/07/27 03:55:43;;;;;;;14.15;7.10;;;22.80;76.40;;;;;;5095066;28;20502;-68
2021/07/27 03:58:09;;;;;;;20.48;8.02;;;22.80;76.60;;;;;;5095002;28;20028;-68
2021/07/27 04:00:35;;;;;;;15.30;5.63;;;22.80;77.10;;;;;;5093925;28;20028;-68
2021/07/27 04:03:02;;;;;;;18.65;8.15;;;22.80;76.40;;;;;;5088337;28;20028;-68
2021/07/27 04:05:27;;;;;;;11.63;5.97;;;22.80;76.60;;;;;;5095033;28;20043;-68
2021/07/27 04:07:53;;;;;;;21.30;9.52;;;22.70;76.20;;;;;;5093390;28;20032;-68
2021/07/27 04:10:19;;;;;;;7.35;4.00;;;22.70;76.70;;;;;;5095072;28;20028;-67
2021/07/27 04:12:44;;;;;;;9.00;4.75;;;22.70;76.30;;;;;;5094747;28;20067;-68
2021/07/27 04:15:10;;;;;;;7.72;4.28;;;22.70;76.60;;;;;;5093753;28;20028;-68
2021/07/27 04:17:36;;;;;;;9.93;5.63;;;22.60;76.90;;;;;;5094346;28;20024;-68
2021/07/27 04:20:02;;;;;;;8.70;4.93;;;22.60;77.40;;;;;;5094037;28;20032;-68
2021/07/27 04:22:28;;;;;;;11.23;6.07;;;22.60;77.60;;;;;;5094095;28;20024;-68
2021/07/27 04:24:57;;;;;;;13.40;6.88;;;22.50;77.70;;;;;;5094062;28;20138;-68
2021/07/27 04:27:24;;;;;;;13.73;7.80;;;22.50;78.20;;;;;;5087500;28;20051;-68
2021/07/27 04:29:50;;;;;;;13.85;7.57;;;22.40;78.30;;;;;;5092906;28;20063;-68
2021/07/27 04:32:16;;;;;;;17.20;9.05;;;22.40;78.30;;;;;;5093523;28;20103;-68
2021/07/27 04:34:42;;;;;;;13.95;8.63;;;22.30;78.50;;;;;;5094350;28;20131;-68
2021/07/27 04:37:07;;;;;;;13.68;8.85;;;22.30;78.60;;;;;;5092983;28;20031;-68
2021/07/27 04:39:34;;;;;;;13.43;8.45;;;22.40;78.30;;;;;;5094706;28;20024;-68
2021/07/27 04:42:00;;;;;;;18.85;8.95;;;22.30;78.00;;;;;;5094064;28;20115;-68
2021/07/27 04:44:25;;;;;;;12.60;5.68;;;22.30;78.20;;;;;;5092675;28;20111;-68
2021/07/27 04:46:51;;;;;;;16.73;8.77;;;22.30;77.50;;;;;;5093319;28;20089;-68
2021/07/27 04:49:17;;;;;;;22.40;10.88;;;22.30;77.90;;;;;;5094411;28;20037;-68
2021/07/27 04:51:42;;;;;;;14.57;7.93;;;22.30;77.90;;;;;;5093596;28;20498;-68
2021/07/27 04:54:14;;;;;;;16.83;8.27;;;22.30;77.60;;;;;;5093028;28;20101;-68
2021/07/27 04:56:40;;;;;;;14.60;8.13;;;22.30;77.60;;;;;;5093870;28;20074;-68
2021/07/27 04:59:06;;;;;;;15.32;8.77;;;22.30;77.50;;;;;;5093418;28;20459;-68
2021/07/27 05:01:31;;;;;;;16.83;10.00;;;22.30;77.50;;;;;;5090546;28;20511;-68
2021/07/27 05:03:57;;;;;;;15.45;8.63;;;22.20;77.70;;;;;;5093248;28;20371;-68
2021/07/27 05:06:23;;;;;;;19.77;9.52;;;22.20;77.70;;;;;;5092561;28;20035;-68
2021/07/27 05:08:49;;;;;;;15.73;8.32;;;22.20;77.40;;;;;;5093714;28;20032;-68
2021/07/27 05:11:15;;;;;;;21.55;8.95;;;22.20;77.40;;;;;;5091671;28;20444;-68
2021/07/27 05:13:41;;;;;;;20.90;9.55;;;22.20;77.50;;;;;;5093926;28;20071;-68
2021/07/27 05:16:07;;;;;;;17.05;8.88;;;22.10;77.40;;;;;;5093686;28;20020;-68
2021/07/27 05:18:32;;;;;;;17.65;9.75;;;22.10;77.60;;;;;;5092296;28;20802;-68
2021/07/27 05:20:58;;;;;;;16.55;9.13;;;22.10;77.70;;;;;;5093673;28;20028;-68
2021/07/27 05:23:33;;;;;;;16.02;9.52;;;22.10;77.60;;;;;;5092696;28;20028;-68
2021/07/27 05:25:58;;;;;;;18.83;9.68;;;22.10;77.70;;;;;;5093185;28;20027;-68
2021/07/27 05:28:28;;;;;;;21.38;11.20;;;22.10;77.70;;;;;;5092617;28;20020;-68
2021/07/27 05:30:53;;;;;;;20.25;10.27;;;22.10;78.20;;;;;;5093475;28;20039;-68
2021/07/27 05:33:19;;;;;;;19.55;9.57;;;22.10;78.00;;;;;;5091799;28;20040;-68
2021/07/27 05:35:45;;;;;;;16.10;9.02;;;22.10;78.00;;;;;;5093054;28;20023;-68
2021/07/27 05:38:11;;;;;;;18.63;9.27;;;22.10;77.80;;;;;;5092750;28;20035;-68
2021/07/27 05:40:36;;;;;;;19.60;9.23;;;22.10;78.10;;;;;;5091690;28;20479;-68
2021/07/27 05:43:02;;;;;;;18.50;8.35;;;22.10;78.00;;;;;;5093366;28;20028;-68
2021/07/27 05:45:28;;;;;;;14.43;7.70;;;22.00;77.60;;;;;;5092867;28;20028;-68
2021/07/27 05:47:54;;;;;;;19.40;9.38;;;22.10;77.90;;;;;;5091545;28;20031;-68
2021/07/27 05:50:20;;;;;;;16.30;9.63;;;22.10;78.30;;;;;;5093015;28;20097;-68
2021/07/27 05:52:46;;;;;;;17.75;9.32;;;22.00;78.60;;;;;;5086664;28;20086;-68
2021/07/27 05:55:12;;;;;;;8.07;4.65;;;22.00;78.50;;;;;;5092895;28;20024;-68
2021/07/27 05:57:38;;;;;;;8.35;3.97;;;22.00;77.80;;;;;;5092887;28;20031;-68
2021/07/27 06:00:05;;;;;;;11.40;7.07;;;22.00;77.90;;;;;;5092196;28;20111;-68
2021/07/27 06:02:34;;;;;;;13.70;5.32;;;22.00;78.60;;;;;;5087754;28;20568;-68
2021/07/27 06:05:00;;;;;;;21.40;8.40;;;22.00;78.30;;;;;;5092981;28;20049;-68
2021/07/27 06:07:25;;;;;;;14.30;8.07;;;22.00;79.00;;;;;;5091676;28;20012;-68
2021/07/27 06:09:51;;;;;;;8.45;4.82;;;22.00;79.10;;;;;;5091309;28;20443;-68
2021/07/27 06:12:17;;;;;;;5.53;2.72;;;21.90;78.70;;;;;;5091983;28;20040;-68
2021/07/27 06:14:42;;;;;;;7.65;4.28;;;21.90;78.80;;;;;;5091514;28;20039;-68
2021/07/27 06:17:12;;;;;;;6.35;2.45;;;21.90;79.00;;;;;;5092717;28;20024;-68
2021/07/27 06:19:38;;;;;;;5.35;3.03;;;21.90;78.90;;;;;;5091949;28;20075;-68
2021/07/27 06:22:03;;;;;;;8.80;3.90;;;21.80;79.10;;;;;;5091679;28;20493;-68
2021/07/27 06:24:29;;;;;;;16.98;8.82;;;21.80;79.20;;;;;;5090538;28;20482;-68
2021/07/27 06:26:55;;;;;;;16.67;9.20;;;21.80;79.50;;;;;;5091722;28;20131;-68
2021/07/27 06:29:23;;;;;;;17.17;8.43;;;21.90;79.70;;;;;;5091362;28;20031;-68
2021/07/27 06:31:49;;;;;;;12.85;4.55;;;21.80;79.60;;;;;;5086477;28;20372;-68
2021/07/27 06:34:14;;;;;;;12.70;6.15;;;21.80;79.20;;;;;;5091988;28;20032;-68
2021/07/27 06:36:40;;;;;;;11.68;5.95;;;21.90;79.50;;;;;;5090478;28;20024;-68
2021/07/27 06:39:06;;;;;;;16.33;7.25;;;21.80;79.30;;;;;;5092046;28;20556;-68
2021/07/27 06:41:31;;;;;;;11.70;3.53;;;21.90;79.50;;;;;;5091006;28;20429;-68
2021/07/27 06:43:57;;;;;;;13.15;5.93;;;21.90;79.10;;;;;;5091018;28;20032;-68
2021/07/27 06:46:23;;;;;;;18.85;8.20;;;21.90;79.20;;;;;;5091534;28;20444;-68
2021/07/27 06:48:49;;;;;;;14.88;5.63;;;21.90;79.50;;;;;;5091325;28;20364;-68
2021/07/27 06:51:16;;;;;;;12.23;6.88;;;21.90;79.40;;;;;;5091088;28;20032;-68
2021/07/27 06:53:43;;;;;;;15.35;6.40;;;21.90;79.40;;;;;;5090960;28;20058;-67
2021/07/27 06:56:09;;;;;;;9.50;5.05;;;21.90;79.30;;;;;;5090721;28;20016;-68
2021/07/27 06:58:37;;;;;;;11.77;5.30;;;21.90;79.30;;;;;;5091586;28;20028;-68
2021/07/27 07:01:04;;;;;;;6.57;3.45;;;21.90;79.30;;;;;;5090751;28;20035;-68
2021/07/27 07:03:30;;;;;;;5.60;3.22;;;21.90;79.40;;;;;;5090313;28;20036;-68
2021/07/27 07:05:56;;;;;;;9.00;3.78;;;21.90;79.70;;;;;;5094904;28;20140;-72
2021/07/27 07:08:22;;;;;;;8.50;3.97;;;21.80;80.00;;;;;;5095061;28;20110;-72
2021/07/27 07:10:58;;;;;;;7.93;5.05;;;21.90;79.80;;;;;;5094821;28;20403;-74
2021/07/27 07:13:24;;;;;;;12.90;5.80;;;21.90;80.70;;;;;;5094874;28;20097;-74
2021/07/27 07:15:50;;;;;;;6.40;4.00;;;21.90;80.20;;;;;;5095545;28;20016;-74
2021/07/27 07:18:16;;;;;;;9.32;3.33;;;21.90;79.90;;;;;;5094571;28;20509;-70
2021/07/27 07:20:42;;;;;;;7.47;4.03;;;21.90;79.80;;;;;;5094770;28;20121;-70
2021/07/27 07:23:08;;;;;;;12.57;6.40;;;21.90;80.00;;;;;;5095579;28;20036;-70
2021/07/27 07:25:39;;;;;;;12.02;6.95;;;22.00;80.40;;;;;;5095488;28;20042;-70
2021/07/27 07:28:07;;;;;;;13.48;7.07;;;22.00;80.50;;;;;;5095515;28;20024;-70
2021/07/27 07:30:33;;;;;;;15.27;6.72;;;22.00;80.20;;;;;;5094245;28;20085;-70
2021/07/27 07:32:59;;;;;;;10.13;4.88;;;22.00;80.10;;;;;;5094212;28;20032;-71
2021/07/27 07:35:27;;;;;;;11.75;6.55;;;22.00;79.90;;;;;;5094588;28;20445;-71
2021/07/27 07:37:52;;;;;;;27.92;10.27;;;22.10;80.10;;;;;;5094955;28;20032;-71
2021/07/27 07:40:18;;;;;;;11.23;5.70;;;22.10;80.50;;;;;;5094485;28;20554;-69
2021/07/27 07:42:44;;;;;;;16.42;6.65;;;22.20;80.10;;;;;;5094994;28;20020;-70
2021/07/27 07:45:13;;;;;;;18.38;9.10;;;22.20;80.10;;;;;;5095546;28;20071;-70
2021/07/27 07:47:39;;;;;;;12.60;6.60;;;22.20;80.30;;;;;;5092096;28;20070;-70
2021/07/27 07:50:05;;;;;;;13.07;5.93;;;22.20;80.20;;;;;;5095067;28;20028;-69
2021/07/27 07:52:31;;;;;;;18.45;9.73;;;22.20;80.30;;;;;;5092341;28;20024;-70
2021/07/27 07:54:56;;;;;;;19.85;9.43;;;22.20;80.60;;;;;;5093917;28;20036;-70
2021/07/27 07:57:23;;;;;;;11.07;5.38;;;22.20;80.60;;;;;;5093076;28;20028;-70
2021/07/27 07:59:49;;;;;;;10.25;4.80;;;22.30;80.70;;;;;;5094854;28;20096;-71
2021/07/27 08:02:14;;;;;;;15.75;7.53;;;22.30;80.60;;;;;;5092633;28;20467;-70
2021/07/27 08:04:40;;;;;;;29.77;13.88;;;22.30;80.80;;;;;;5094307;28;20028;-70
2021/07/27 08:07:06;;;;;;;17.17;8.10;;;22.30;81.00;;;;;;5093927;28;20051;-70
2021/07/27 08:09:32;;;;;;;20.35;11.00;;;22.30;80.70;;;;;;5094052;28;20077;-70
2021/07/27 08:11:57;;;;;;;20.60;10.32;;;22.30;80.70;;;;;;5094362;28;20052;-70
2021/07/27 08:14:25;;;;;;;18.33;10.15;;;22.30;80.40;;;;;;5093616;28;20055;-70
2021/07/27 08:16:52;;;;;;;23.58;12.70;;;22.40;80.40;;;;;;5093679;28;20028;-70
2021/07/27 08:19:19;;;;;;;11.98;6.65;;;22.40;80.40;;;;;;5093153;28;20531;-70
2021/07/27 08:21:45;;;;;;;17.05;9.27;;;22.40;80.00;;;;;;5093315;28;20020;-69
2021/07/27 08:24:11;;;;;;;13.40;7.05;;;22.40;80.00;;;;;;5093960;28;20042;-69
2021/07/27 08:26:36;;;;;;;17.85;9.43;;;22.50;79.90;;;;;;5093440;28;20028;-70
2021/07/27 08:29:02;;;;;;;19.50;8.93;;;22.40;79.90;;;;;;5093370;28;20039;-71
2021/07/27 08:31:28;;;;;;;27.27;14.57;;;22.50;80.00;;;;;;5092483;28;20118;-70
2021/07/27 08:33:53;;;;;;;16.35;7.05;;;22.50;80.30;;;;;;5093419;28;20036;-70
2021/07/27 08:36:19;;;;;;;13.23;6.32;;;22.50;80.00;;;;;;5093224;28;20388;-70
2021/07/27 08:38:45;;;;;;;23.58;10.05;;;22.50;80.10;;;;;;5093854;28;20487;-71
2021/07/27 08:41:16;;;;;;;21.23;11.18;;;22.50;80.10;;;;;;5093895;28;20020;-75
2021/07/27 08:43:42;;;;;;;14.00;6.85;;;22.60;80.20;;;;;;5092650;28;20070;-74
2021/07/27 08:46:08;;;;;;;19.90;11.45;;;22.60;79.90;;;;;;5093564;28;20035;-74
2021/07/27 08:48:38;;;;;;;26.95;13.77;;;22.60;79.90;;;;;;5093274;28;20085;-74
2021/07/27 08:51:04;;;;;;;27.13;10.88;;;22.60;79.90;;;;;;5093293;28;20369;-74
2021/07/27 08:53:30;;;;;;;38.00;14.93;;;22.70;79.70;;;;;;5091628;28;20043;-74
2021/07/27 08:55:56;;;;;;;20.58;11.82;;;22.70;79.60;;;;;;5093125;28;20024;-74
2021/07/27 08:58:21;;;;;;;22.08;10.02;;;22.80;79.40;;;;;;5093064;28;20048;-74
2021/07/27 09:00:47;;;;;;;17.45;7.28;;;22.70;79.10;;;;;;5091681;28;20392;-74
2021/07/27 09:03:16;;;;;;;19.92;10.73;;;22.80;79.00;;;;;;5089517;28;20082;-73
2021/07/27 09:05:42;;;;;;;21.20;12.48;;;22.80;79.10;;;;;;5092307;28;20475;-74
2021/07/27 09:08:09;;;;;;;35.40;17.45;;;22.80;79.00;;;;;;5091842;28;20028;-74
2021/07/27 09:10:36;;;;;;;25.90;14.38;;;22.90;79.10;;;;;;5090533;28;20044;-74
2021/07/27 09:13:10;;;;;;;30.40;15.73;;;22.90;79.10;;;;;;5090886;28;20399;-74
2021/07/27 09:15:44;;;;;;;29.17;16.52;;;23.00;79.10;;;;;;5089880;28;20039;-74
2021/07/27 09:18:11;;;;;;;32.88;17.60;;;23.00;78.90;;;;;;5090800;28;20020;-74
2021/07/27 09:20:48;;;;;;;36.58;18.13;;;23.10;78.90;;;;;;5093185;28;20077;-74
2021/07/27 09:23:21;;;;;;;32.92;16.42;;;23.10;79.00;;;;;;5093213;28;20035;-74
2021/07/27 09:25:51;;;;;;;31.35;16.42;;;23.20;78.60;;;;;;5092577;28;20020;-74
2021/07/27 09:28:18;;;;;;;39.70;19.50;;;23.20;78.40;;;;;;5091901;28;20039;-74
2021/07/27 09:30:45;;;;;;;39.05;17.80;;;23.20;78.10;;;;;;5092181;28;20088;-74
2021/07/27 09:33:13;;;;;;;32.20;18.10;;;23.30;78.30;;;;;;5092716;28;20036;-74
2021/07/27 09:35:40;;;;;;;37.67;15.32;;;23.30;77.90;;;;;;5093084;28;20072;-74
2021/07/27 09:38:09;;;;;;;28.10;13.98;;;23.30;77.80;;;;;;5092117;28;20024;-74
2021/07/27 09:41:06;;;;;;;33.22;15.68;;;23.40;77.90;;;;;;5092002;28;20176;-75
2021/07/27 09:43:32;;;;;;;29.48;12.73;;;23.40;77.70;;;;;;5074800;28;20392;-74
2021/07/27 09:46:02;;;;;;;26.25;12.80;;;23.40;77.30;;;;;;5092288;28;20043;-74
2021/07/27 09:48:36;;;;;;;21.63;10.20;;;23.50;77.10;;;;;;5093056;28;20036;-75
2021/07/27 09:51:03;;;;;;;28.63;14.35;;;23.50;77.10;;;;;;5087657;28;20036;-70
2021/07/27 09:53:30;;;;;;;22.88;11.57;;;23.50;77.00;;;;;;5091330;28;20032;-70
2021/07/27 09:55:57;;;;;;;27.85;14.20;;;23.60;76.90;;;;;;5092722;28;20130;-70
2021/07/27 09:58:23;;;;;;;27.30;13.68;;;23.60;76.70;;;;;;5093195;28;20043;-70
2021/07/27 10:01:20;;;;;;;24.52;13.10;;;23.70;76.70;;;;;;5090544;28;20032;-70
2021/07/27 10:03:59;;;;;;;25.02;10.57;;;23.70;76.60;;;;;;5071976;28;20042;-70
2021/07/27 10:06:30;;;;;;;28.92;14.75;;;23.80;76.50;;;;;;5091150;28;20505;-70
2021/07/27 10:09:01;;;;;;;29.50;16.23;;;23.80;76.60;;;;;;5092886;28;20023;-71
2021/07/27 10:11:42;;;;;;;25.63;13.70;;;23.80;76.60;;;;;;5091445;28;20055;-70
2021/07/27 10:14:11;;;;;;;27.92;15.25;;;23.80;76.50;;;;;;5091792;28;20513;-70
2021/07/27 10:16:38;;;;;;;17.95;9.32;;;23.90;76.70;;;;;;5091157;28;20028;-70
2021/07/27 10:19:38;;;;;;;31.70;15.88;;;23.90;76.60;;;;;;5092248;28;20127;-70
2021/07/27 10:22:07;;;;;;;24.83;12.25;;;24.00;76.70;;;;;;5063799;28;20028;-70
2021/07/27 10:24:41;;;;;;;28.58;13.30;;;24.00;76.60;;;;;;5092671;28;20036;-70
2021/07/27 10:27:21;;;;;;;27.58;13.25;;;24.00;76.50;;;;;;5090059;28;20032;-70
2021/07/27 10:29:47;;;;;;;36.72;17.75;;;24.10;76.50;;;;;;5073928;28;20472;-70
2021/07/27 10:32:15;;;;;;;15.32;8.57;;;24.10;76.40;;;;;;5091370;28;20066;-70
2021/07/27 10:34:41;;;;;;;26.67;15.88;;;24.20;76.30;;;;;;5091106;28;20036;-70
2021/07/27 10:37:09;;;;;;;40.38;14.05;;;24.30;76.00;;;;;;5091420;28;20039;-70
2021/07/27 10:39:53;;;;;;;27.83;15.60;;;24.30;76.10;;;;;;5091463;28;20494;-70
2021/07/27 10:42:20;;;;;;;17.23;8.20;;;24.30;75.60;;;;;;5088370;28;20081;-70
2021/07/27 10:44:47;;;;;;;22.20;10.07;;;24.30;75.40;;;;;;5091836;28;20036;-71
2021/07/27 10:47:20;;;;;;;18.63;9.13;;;24.30;74.90;;;;;;5091435;28;20540;-70
2021/07/27 10:49:46;;;;;;;24.75;13.77;;;24.40;74.90;;;;;;5090990;28;20036;-73
2021/07/27 10:52:12;;;;;;;25.35;9.25;;;24.40;75.00;;;;;;5092132;28;20031;-74
2021/07/27 10:54:42;;;;;;;23.35;11.18;;;24.40;75.20;;;;;;5081737;28;20040;-74
2021/07/27 10:57:10;;;;;;;21.52;12.10;;;24.40;74.90;;;;;;5090897;28;20029;-74
2021/07/27 10:59:36;;;;;;;23.88;14.10;;;24.40;74.60;;;;;;5091388;28;20039;-74
2021/07/27 11:02:08;;;;;;;21.30;10.40;;;24.40;74.70;;;;;;5088997;28;20050;-74
2021/07/27 11:04:34;;;;;;;18.88;10.77;;;24.60;74.80;;;;;;5090463;28;20472;-75
2021/07/27 11:07:10;;;;;;;17.90;9.77;;;24.50;74.80;;;;;;5090847;28;20471;-75
2021/07/27 11:09:55;;;;;;;29.55;14.70;;;24.60;74.70;;;;;;5083585;28;20141;-74
2021/07/27 11:12:34;;;;;;;31.17;16.40;;;24.60;74.30;;;;;;5084856;28;20044;-75
2021/07/27 11:15:13;;;;;;;29.10;13.93;;;24.70;74.30;;;;;;5090307;28;20060;-75
2021/07/27 11:17:47;;;;;;;15.85;8.80;;;24.70;74.30;;;;;;5090886;28;20035;-74
2021/07/27 11:20:19;;;;;;;26.95;14.35;;;24.70;74.00;;;;;;5083053;28;20031;-75
2021/07/27 11:22:51;;;;;;;28.65;12.00;;;24.70;73.50;;;;;;5090770;28;20431;-71
2021/07/27 11:25:20;;;;;;;26.92;14.18;;;24.70;73.60;;;;;;5088133;28;20463;-76
2021/07/27 11:27:48;;;;;;;23.60;13.55;;;24.70;73.30;;;;;;5090517;28;20078;-76
2021/07/27 11:30:14;;;;;;;26.45;13.15;;;24.80;73.50;;;;;;5088546;28;20035;-75
2021/07/27 11:32:42;;;;;;;21.13;13.15;;;24.80;73.60;;;;;;5090816;28;20103;-76
2021/07/27 11:35:13;;;;;;;19.02;9.88;;;24.90;73.20;;;;;;5089888;28;20040;-75
2021/07/27 11:37:40;;;;;;;11.32;7.15;;;24.90;73.30;;;;;;5090770;28;20028;-72
2021/07/27 11:40:07;;;;;;;20.02;10.45;;;24.90;73.10;;;;;;5088586;28;20046;-72
2021/07/27 11:42:34;;;;;;;15.65;8.77;;;25.00;72.80;;;;;;5091406;28;20039;-72
2021/07/27 11:45:01;;;;;;;13.25;8.18;;;25.00;72.50;;;;;;5090667;28;20081;-72
2021/07/27 11:47:43;;;;;;;14.82;8.00;;;25.00;72.50;;;;;;5088701;28;20043;-72
2021/07/27 11:50:26;;;;;;;11.15;6.40;;;25.00;72.60;;;;;;5090419;28;20097;-72
2021/07/27 11:53:05;;;;;;;8.27;4.15;;;25.00;72.50;;;;;;5087009;28;20037;-72
2021/07/27 11:55:39;;;;;;;12.85;8.10;;;25.00;71.80;;;;;;5093947;28;20032;-72
2021/07/27 11:58:06;;;;;;;5.13;3.55;;;25.00;71.70;;;;;;5087453;28;20551;-73
2021/07/27 12:00:33;;;;;;;13.80;6.70;;;25.00;72.00;;;;;;5092180;28;20063;-73
2021/07/27 12:02:59;;;;;;;12.88;8.15;;;25.10;71.40;;;;;;5091658;28;20086;-72
2021/07/27 12:05:26;;;;;;;11.25;7.30;;;25.00;71.20;;;;;;5093331;28;20395;-72
2021/07/27 12:07:52;;;;;;;12.10;5.70;;;25.10;71.00;;;;;;5093063;28;20134;-73
2021/07/27 12:10:18;;;;;;;12.38;7.68;;;25.10;71.00;;;;;;5093101;28;20031;-73
2021/07/27 12:12:43;;;;;;;9.55;4.60;;;25.20;70.80;;;;;;5090057;28;20035;-72
2021/07/27 12:15:15;;;;;;;9.18;4.60;;;25.20;71.00;;;;;;5095108;28;20414;-72
2021/07/27 12:17:42;;;;;;;10.20;6.70;;;25.20;71.00;;;;;;5089817;28;20032;-72
2021/07/27 12:20:13;;;;;;;16.45;7.97;;;25.20;70.50;;;;;;5094320;28;20055;-72
2021/07/27 12:22:39;;;;;;;11.60;6.65;;;25.30;70.50;;;;;;5093480;28;20035;-71
2021/07/27 12:25:06;;;;;;;7.60;4.22;;;25.20;70.70;;;;;;5093368;28;20056;-72
2021/07/27 12:27:32;;;;;;;11.15;6.93;;;25.30;70.40;;;;;;5093556;28;20115;-72
2021/07/27 12:29:57;;;;;;;10.20;6.43;;;25.40;70.20;;;;;;5092707;28;20103;-72
2021/07/27 12:32:23;;;;;;;17.33;7.78;;;25.40;70.40;;;;;;5094056;28;20496;-72
2021/07/27 12:34:50;;;;;;;8.70;5.75;;;25.40;69.90;;;;;;5089851;28;20047;-72
2021/07/27 12:37:18;;;;;;;10.55;6.13;;;25.40;70.00;;;;;;5092046;28;20142;-72
2021/07/27 12:39:45;;;;;;;17.45;7.88;;;25.50;69.40;;;;;;5092560;28;20369;-71
2021/07/27 12:42:11;;;;;;;9.65;5.18;;;25.40;70.00;;;;;;5092189;28;20024;-71
2021/07/27 12:44:36;;;;;;;5.90;3.00;;;25.50;69.80;;;;;;5094172;28;20494;-72
2021/07/27 12:47:03;;;;;;;9.07;5.13;;;25.50;70.00;;;;;;5091873;28;20036;-72
2021/07/27 12:49:28;;;;;;;14.43;7.35;;;25.60;70.00;;;;;;5092694;28;20024;-72
2021/07/27 12:51:54;;;;;;;8.07;5.55;;;25.60;69.30;;;;;;5093669;28;20031;-72
2021/07/27 12:54:20;;;;;;;13.25;6.97;;;25.70;69.90;;;;;;5092727;28;20043;-71
2021/07/27 12:56:45;;;;;;;16.17;8.30;;;25.70;69.60;;;;;;5092066;28;20522;-72
2021/07/27 12:59:11;;;;;;;12.43;7.10;;;25.70;69.40;;;;;;5092733;28;20032;-71